Time;durP1;ratioP1;P1;durP2;ratioP2;P2;SDS_P1;SDS_P2;PMS_P1;PMS_P2;Temp;Humidity;BMP_temperature;BMP_pressure;BME280_temperature;BME280_humidity;BME280_pressure;Samples;Min_cycle;Max_cycle;Signal;HPM_P1;HPM_P2
2022/11/13 00:00:23;;;;;;;21.15;14.60;;;8.90;74.30;;;;;;5035556;28;20395;-76
2022/11/13 00:02:49;;;;;;;20.52;14.27;;;8.90;74.30;;;;;;5034951;28;20414;-76
2022/11/13 00:05:14;;;;;;;22.73;15.20;;;8.80;75.40;;;;;;5035885;28;20897;-77
2022/11/13 00:07:40;;;;;;;22.40;14.40;;;8.80;75.80;;;;;;5035800;28;20379;-76
2022/11/13 00:10:06;;;;;;;22.70;14.57;;;8.80;76.50;;;;;;5036023;28;20375;-77
2022/11/13 00:12:31;;;;;;;23.35;15.57;;;8.70;76.60;;;;;;5040140;28;20390;-76
2022/11/13 00:14:57;;;;;;;20.13;14.65;;;8.70;77.00;;;;;;5039002;28;20422;-76
2022/11/13 00:17:22;;;;;;;20.87;14.73;;;8.60;77.80;;;;;;5039532;28;20433;-75
2022/11/13 00:19:48;;;;;;;20.00;14.40;;;8.60;78.70;;;;;;5039770;28;20383;-76
2022/11/13 00:22:14;;;;;;;23.40;14.77;;;8.50;80.00;;;;;;5037783;28;20457;-76
2022/11/13 00:24:39;;;;;;;21.48;14.35;;;8.60;78.50;;;;;;5034240;28;20891;-77
2022/11/13 00:27:05;;;;;;;20.40;13.75;;;8.50;79.70;;;;;;5032943;28;20415;-75
2022/11/13 00:29:31;;;;;;;23.58;15.10;;;8.50;81.00;;;;;;5034309;28;20394;-76
2022/11/13 00:31:56;;;;;;;25.60;15.82;;;8.40;81.60;;;;;;5034150;28;20529;-74
2022/11/13 00:34:22;;;;;;;22.15;14.90;;;8.40;81.10;;;;;;5032780;28;20386;-75
2022/11/13 00:36:48;;;;;;;26.27;16.17;;;8.50;81.00;;;;;;5033988;28;20872;-75
2022/11/13 00:39:13;;;;;;;22.30;14.80;;;8.40;81.80;;;;;;5033509;28;20908;-74
2022/11/13 00:41:39;;;;;;;21.80;15.20;;;8.40;82.90;;;;;;5033510;28;20390;-75
2022/11/13 00:44:04;;;;;;;24.45;15.30;;;8.50;82.30;;;;;;5033574;28;20440;-75
2022/11/13 00:46:30;;;;;;;23.00;14.65;;;8.50;83.20;;;;;;5033718;28;20410;-75
2022/11/13 00:48:56;;;;;;;23.40;14.82;;;8.50;82.20;;;;;;5033337;28;20390;-76
2022/11/13 00:51:22;;;;;;;21.05;14.80;;;8.50;81.80;;;;;;5032604;28;20379;-75
2022/11/13 00:53:47;;;;;;;20.25;14.88;;;8.50;81.50;;;;;;5033383;28;20776;-76
2022/11/13 00:56:13;;;;;;;22.37;14.67;;;8.50;79.70;;;;;;5033335;28;20729;-76
2022/11/13 00:58:39;;;;;;;20.23;14.43;;;8.50;79.20;;;;;;5033484;28;20386;-76
2022/11/13 01:01:07;;;;;;;18.57;13.60;;;8.50;78.90;;;;;;5033468;28;20387;-76
2022/11/13 01:03:33;;;;;;;24.02;13.93;;;8.50;79.00;;;;;;5031973;28;20404;-75
2022/11/13 01:05:59;;;;;;;21.97;14.10;;;8.50;78.50;;;;;;5033125;28;20499;-75
2022/11/13 01:08:25;;;;;;;18.67;14.40;;;8.50;77.40;;;;;;5032815;28;20411;-75
2022/11/13 01:10:51;;;;;;;20.00;14.00;;;8.50;77.50;;;;;;5032663;28;20446;-75
2022/11/13 01:13:16;;;;;;;24.42;14.48;;;8.50;76.90;;;;;;5031563;28;20392;-75
2022/11/13 01:15:43;;;;;;;20.57;14.17;;;8.50;76.80;;;;;;5032814;28;20922;-77
2022/11/13 01:18:10;;;;;;;24.55;15.27;;;8.60;76.80;;;;;;5048489;28;20384;-75
2022/11/13 01:20:36;;;;;;;19.85;14.48;;;8.50;75.90;;;;;;5033261;28;20873;-77
2022/11/13 01:23:02;;;;;;;19.23;14.10;;;8.60;76.10;;;;;;5033831;28;20386;-75
2022/11/13 01:25:29;;;;;;;22.15;14.48;;;8.60;75.70;;;;;;5035979;28;20765;-75
2022/11/13 01:27:55;;;;;;;22.15;14.80;;;8.60;76.10;;;;;;5033929;28;20394;-75
2022/11/13 01:30:20;;;;;;;28.95;14.88;;;8.60;76.20;;;;;;5032933;28;20387;-75
2022/11/13 01:32:46;;;;;;;19.05;14.65;;;8.60;76.10;;;;;;5031209;28;20383;-76
2022/11/13 01:35:11;;;;;;;21.98;14.43;;;8.70;75.70;;;;;;5032792;28;20394;-75
2022/11/13 01:37:37;;;;;;;23.88;14.90;;;8.70;74.80;;;;;;5032265;28;20425;-75
2022/11/13 01:40:03;;;;;;;21.33;14.90;;;8.70;73.30;;;;;;5031964;28;20395;-75
2022/11/13 01:42:32;;;;;;;21.20;13.82;;;8.70;73.80;;;;;;5031152;28;20491;-76
2022/11/13 01:44:59;;;;;;;20.00;14.60;;;8.80;73.40;;;;;;5032351;28;20767;-77
2022/11/13 01:47:25;;;;;;;19.73;13.95;;;8.80;73.60;;;;;;5032328;28;20390;-75
2022/11/13 01:49:54;;;;;;;21.63;14.00;;;8.80;71.50;;;;;;5030420;28;20383;-75
2022/11/13 01:52:30;;;;;;;17.02;12.52;;;8.80;71.70;;;;;;5033729;28;20453;-75
2022/11/13 01:55:01;;;;;;;20.10;13.45;;;8.70;70.10;;;;;;5039840;28;20379;-75
2022/11/13 01:57:27;;;;;;;21.85;14.15;;;8.80;69.70;;;;;;5040943;28;20428;-77
2022/11/13 01:59:57;;;;;;;17.42;12.48;;;8.70;68.10;;;;;;5045946;28;20419;-75
2022/11/13 02:02:23;;;;;;;19.75;13.32;;;8.70;67.90;;;;;;5034287;28;20394;-75
2022/11/13 02:04:49;;;;;;;18.03;13.17;;;8.60;68.60;;;;;;5037312;28;20463;-76
2022/11/13 02:07:17;;;;;;;17.95;12.75;;;8.60;68.70;;;;;;5035773;28;20403;-76
2022/11/13 02:09:46;;;;;;;23.42;14.10;;;8.60;68.30;;;;;;5031867;28;20962;-75
2022/11/13 02:12:15;;;;;;;19.83;14.10;;;8.50;67.70;;;;;;5030839;28;20788;-75
2022/11/13 02:14:46;;;;;;;20.60;13.50;;;8.50;67.60;;;;;;5033631;28;20934;-75
2022/11/13 02:17:20;;;;;;;20.20;13.77;;;8.60;67.20;;;;;;5032523;28;20410;-77
2022/11/13 02:19:49;;;;;;;19.60;13.60;;;8.60;66.50;;;;;;5036160;28;20397;-76
2022/11/13 02:22:33;;;;;;;17.83;13.07;;;8.60;66.80;;;;;;5039452;28;20453;-77
2022/11/13 02:25:01;;;;;;;21.60;13.50;;;8.50;67.00;;;;;;5034965;28;20383;-76
2022/11/13 02:27:40;;;;;;;20.63;13.57;;;8.50;68.50;;;;;;5032870;28;20450;-75
2022/11/13 02:30:28;;;;;;;21.80;13.70;;;8.50;67.50;;;;;;5034418;28;20387;-75
2022/11/13 02:32:55;;;;;;;20.73;13.27;;;8.50;68.10;;;;;;5031873;28;20391;-76
2022/11/13 02:35:30;;;;;;;17.40;12.87;;;8.50;68.90;;;;;;5032755;28;20414;-77
2022/11/13 02:37:59;;;;;;;18.63;12.23;;;8.40;67.20;;;;;;5035848;28;20387;-76
2022/11/13 02:40:24;;;;;;;16.45;12.10;;;8.50;66.20;;;;;;5036840;28;20871;-77
2022/11/13 02:42:50;;;;;;;19.60;12.35;;;8.50;66.60;;;;;;5031479;28;20398;-76
2022/11/13 02:45:16;;;;;;;18.73;12.50;;;8.60;65.00;;;;;;5032219;28;20379;-77
2022/11/13 02:47:42;;;;;;;15.63;11.10;;;8.60;65.10;;;;;;5030297;28;20383;-76
2022/11/13 02:50:09;;;;;;;17.00;11.27;;;8.60;65.00;;;;;;5032590;28;20383;-76
2022/11/13 02:52:35;;;;;;;16.90;11.23;;;8.60;63.80;;;;;;5030836;28;20884;-76
2022/11/13 02:55:00;;;;;;;15.95;11.23;;;8.60;63.30;;;;;;5029755;28;20506;-76
2022/11/13 02:57:26;;;;;;;14.98;11.00;;;8.70;62.50;;;;;;5031094;28;20403;-75
2022/11/13 02:59:51;;;;;;;17.05;10.75;;;8.70;62.80;;;;;;5031764;28;20410;-75
2022/11/13 03:02:17;;;;;;;19.63;11.10;;;8.70;63.10;;;;;;5029630;28;20436;-76
2022/11/13 03:04:43;;;;;;;18.15;11.73;;;8.60;63.50;;;;;;5031208;28;20432;-75
2022/11/13 03:07:09;;;;;;;16.33;11.30;;;8.70;64.30;;;;;;5031688;28;20445;-76
2022/11/13 03:09:34;;;;;;;15.10;11.40;;;8.70;64.60;;;;;;5030787;28;20434;-77
2022/11/13 03:12:00;;;;;;;17.30;11.30;;;8.60;65.40;;;;;;5029996;28;20387;-76
2022/11/13 03:14:26;;;;;;;17.47;11.20;;;8.50;65.90;;;;;;5032202;28;20397;-75
2022/11/13 03:16:51;;;;;;;17.40;11.60;;;8.40;65.50;;;;;;5036427;28;20387;-76
2022/11/13 03:19:17;;;;;;;16.83;11.20;;;8.40;66.20;;;;;;5035416;28;20426;-77
2022/11/13 03:21:42;;;;;;;16.03;10.43;;;8.60;66.20;;;;;;5035913;28;20413;-76
2022/11/13 03:24:08;;;;;;;15.67;10.50;;;8.50;64.80;;;;;;5038413;28;20386;-76
2022/11/13 03:26:33;;;;;;;15.20;10.68;;;8.40;64.60;;;;;;5045783;28;20811;-75
2022/11/13 03:28:59;;;;;;;14.45;10.77;;;8.30;65.90;;;;;;5037091;28;20383;-75
2022/11/13 03:31:25;;;;;;;13.80;10.10;;;8.20;66.60;;;;;;5033100;28;20391;-77
2022/11/13 03:33:53;;;;;;;15.57;10.70;;;8.10;67.20;;;;;;5035276;28;20740;-75
2022/11/13 03:36:19;;;;;;;15.73;11.35;;;8.10;67.50;;;;;;5035138;28;20387;-76
2022/11/13 03:38:44;;;;;;;15.15;10.20;;;8.00;68.10;;;;;;5050273;28;20760;-76
2022/11/13 03:41:10;;;;;;;14.02;10.85;;;8.00;68.60;;;;;;5033274;28;20390;-75
2022/11/13 03:43:35;;;;;;;14.57;10.70;;;7.90;69.20;;;;;;5035893;28;20799;-76
2022/11/13 03:46:01;;;;;;;15.55;11.20;;;7.90;69.40;;;;;;5035623;28;20407;-74
2022/11/13 03:48:27;;;;;;;16.00;11.52;;;7.80;69.90;;;;;;5035277;28;20387;-75
2022/11/13 03:50:54;;;;;;;14.60;10.90;;;7.80;70.30;;;;;;5035177;28;20938;-74
2022/11/13 03:53:20;;;;;;;14.57;10.32;;;7.80;70.60;;;;;;5035134;28;20395;-75
2022/11/13 03:55:46;;;;;;;17.10;11.05;;;7.80;70.80;;;;;;5035094;28;20386;-76
2022/11/13 03:58:12;;;;;;;13.25;9.80;;;7.80;69.90;;;;;;5035158;28;20425;-77
2022/11/13 04:00:43;;;;;;;16.40;11.60;;;7.70;70.90;;;;;;5034816;28;20500;-77
2022/11/13 04:03:08;;;;;;;15.40;10.33;;;7.70;71.70;;;;;;5034337;28;20815;-76
2022/11/13 04:05:34;;;;;;;14.73;10.90;;;7.60;72.10;;;;;;5034029;28;20497;-76
2022/11/13 04:07:59;;;;;;;15.60;10.60;;;7.50;72.40;;;;;;5034252;28;20490;-76
2022/11/13 04:10:25;;;;;;;17.17;11.60;;;7.50;73.40;;;;;;5034018;28;20787;-76
2022/11/13 04:12:51;;;;;;;13.27;10.70;;;7.40;73.90;;;;;;5033634;28;20461;-75
2022/11/13 04:15:16;;;;;;;14.13;11.30;;;7.40;74.20;;;;;;5034605;28;20419;-77
2022/11/13 04:17:42;;;;;;;13.70;10.37;;;7.40;73.30;;;;;;5034474;28;20432;-78
2022/11/13 04:20:09;;;;;;;16.20;10.57;;;7.30;73.70;;;;;;5034260;28;20391;-77
2022/11/13 04:22:34;;;;;;;17.60;11.30;;;7.20;74.90;;;;;;5033896;28;20395;-76
2022/11/13 04:25:00;;;;;;;15.88;10.93;;;7.20;76.60;;;;;;5037462;28;20636;-76
2022/11/13 04:27:25;;;;;;;15.73;10.93;;;7.20;77.10;;;;;;5032226;28;20407;-76
2022/11/13 04:29:51;;;;;;;13.80;10.23;;;7.10;79.50;;;;;;5034227;28;20397;-76
2022/11/13 04:32:16;;;;;;;14.57;10.53;;;7.20;78.20;;;;;;5032155;28;20795;-76
2022/11/13 04:34:42;;;;;;;20.73;11.10;;;7.10;79.40;;;;;;5032583;28;20409;-76
2022/11/13 04:37:08;;;;;;;20.23;12.17;;;7.00;80.00;;;;;;5033166;28;20427;-76
2022/11/13 04:39:33;;;;;;;16.03;11.17;;;7.10;82.40;;;;;;5036371;28;20407;-76
2022/11/13 04:44:43;;;;;;;14.85;10.43;;;7.20;79.90;;;;;;5035051;28;20915;-77
2022/11/13 04:47:09;;;;;;;13.57;10.00;;;7.10;82.00;;;;;;5038772;28;20414;-76
2022/11/13 04:49:34;;;;;;;12.63;9.65;;;7.00;81.10;;;;;;5033791;28;20379;-76
2022/11/13 04:52:00;;;;;;;12.77;9.70;;;7.00;82.60;;;;;;5033106;28;20379;-74
2022/11/13 04:54:25;;;;;;;14.50;9.80;;;6.90;81.50;;;;;;5032778;28;20427;-75
2022/11/13 04:56:51;;;;;;;12.07;9.80;;;6.90;80.60;;;;;;5032867;28;20387;-75
2022/11/13 04:59:17;;;;;;;14.20;10.13;;;6.80;81.40;;;;;;5032887;28;20387;-75
2022/11/13 05:01:42;;;;;;;11.52;9.52;;;6.80;81.90;;;;;;5033285;28;20391;-75
2022/11/13 05:04:11;;;;;;;14.23;10.43;;;6.80;82.00;;;;;;5032019;28;20395;-76
2022/11/13 05:06:37;;;;;;;15.07;10.00;;;6.70;83.60;;;;;;5032069;28;20493;-76
2022/11/13 05:09:02;;;;;;;13.43;9.80;;;6.80;83.60;;;;;;5034945;28;20938;-76
2022/11/13 05:11:28;;;;;;;11.97;9.30;;;6.90;83.40;;;;;;5041611;28;20390;-76
2022/11/13 05:13:54;;;;;;;13.57;9.83;;;6.80;82.70;;;;;;5044915;28;20387;-77
2022/11/13 05:16:19;;;;;;;13.77;9.90;;;6.70;82.00;;;;;;5045784;28;20383;-76
2022/11/13 05:18:45;;;;;;;13.23;9.83;;;6.70;81.90;;;;;;5048927;28;20422;-75
2022/11/13 05:21:11;;;;;;;12.20;9.77;;;6.70;80.80;;;;;;5044256;28;20405;-76
2022/11/13 05:23:36;;;;;;;14.38;9.82;;;6.70;80.00;;;;;;5044854;28;20395;-74
2022/11/13 05:26:10;;;;;;;11.98;9.23;;;6.70;79.50;;;;;;5048396;28;20972;-77
2022/11/13 05:28:36;;;;;;;11.88;9.23;;;6.70;79.60;;;;;;5042890;28;20406;-76
2022/11/13 05:31:14;;;;;;;12.60;9.23;;;6.70;79.20;;;;;;5038262;28;20383;-76
2022/11/13 05:33:41;;;;;;;14.05;9.32;;;6.70;79.50;;;;;;5038842;28;20383;-77
2022/11/13 05:36:09;;;;;;;15.80;9.48;;;6.70;79.30;;;;;;5035288;28;20398;-77
2022/11/13 05:38:35;;;;;;;10.48;8.80;;;6.70;79.10;;;;;;5032691;28;20464;-76
2022/11/13 05:41:01;;;;;;;12.75;9.13;;;6.70;78.60;;;;;;5037525;28;20391;-77
2022/11/13 05:43:27;;;;;;;10.95;8.73;;;6.70;77.10;;;;;;5033212;28;20863;-76
2022/11/13 05:45:59;;;;;;;12.75;8.48;;;6.60;77.20;;;;;;5032961;28;20435;-75
2022/11/13 05:48:25;;;;;;;12.45;8.70;;;6.60;77.10;;;;;;5032504;28;20384;-76
2022/11/13 05:50:50;;;;;;;13.10;9.20;;;6.50;77.40;;;;;;5037335;28;20379;-74
2022/11/13 05:53:16;;;;;;;11.45;8.82;;;6.50;78.10;;;;;;5036935;28;20394;-76
2022/11/13 05:55:41;;;;;;;12.03;9.17;;;6.50;79.10;;;;;;5039743;28;20403;-76
2022/11/13 05:58:07;;;;;;;15.53;9.63;;;6.60;79.20;;;;;;5040365;28;20485;-76
2022/11/13 06:00:33;;;;;;;15.93;9.53;;;6.60;78.50;;;;;;5041088;28;20403;-76
2022/11/13 06:02:59;;;;;;;13.00;8.80;;;6.50;78.70;;;;;;5036165;28;20395;-75
2022/11/13 06:05:24;;;;;;;12.15;9.25;;;6.40;79.20;;;;;;5031543;28;20453;-76
2022/11/13 06:07:50;;;;;;;14.88;9.27;;;6.30;79.50;;;;;;5030145;28;20387;-75
2022/11/13 06:10:16;;;;;;;16.73;9.38;;;6.30;79.40;;;;;;5030226;28;20387;-75
2022/11/13 06:12:41;;;;;;;12.90;8.60;;;6.30;79.10;;;;;;5031329;28;20391;-75
2022/11/13 06:15:07;;;;;;;12.63;8.97;;;6.30;78.70;;;;;;5031481;28;20379;-75
2022/11/13 06:17:33;;;;;;;12.57;8.53;;;6.30;78.70;;;;;;5031771;28;20442;-77
2022/11/13 06:19:58;;;;;;;15.37;9.17;;;6.30;79.30;;;;;;5033014;28;20387;-77
2022/11/13 06:22:24;;;;;;;12.43;8.57;;;6.30;79.10;;;;;;5034634;28;20391;-77
2022/11/13 06:24:49;;;;;;;11.43;8.67;;;6.20;79.40;;;;;;5037071;28;20475;-75
2022/11/13 06:27:15;;;;;;;14.40;8.80;;;6.20;79.90;;;;;;5031817;28;20753;-76
2022/11/13 06:29:40;;;;;;;13.33;9.17;;;6.20;80.10;;;;;;5032342;28;20410;-76
2022/11/13 06:32:06;;;;;;;13.80;8.80;;;6.10;79.90;;;;;;5036170;28;20883;-77
2022/11/13 06:34:31;;;;;;;11.00;8.63;;;6.10;80.30;;;;;;5040167;28;20749;-76
2022/11/13 06:36:57;;;;;;;10.97;8.20;;;6.10;81.00;;;;;;5035113;28;20951;-76
2022/11/13 06:39:22;;;;;;;12.65;9.02;;;6.10;82.10;;;;;;5037816;28;20503;-76
2022/11/13 06:41:48;;;;;;;11.98;8.18;;;6.10;82.30;;;;;;5032787;28;20387;-77
2022/11/13 06:44:13;;;;;;;12.70;8.88;;;6.10;81.70;;;;;;5033064;28;20398;-77
2022/11/13 06:46:39;;;;;;;11.45;8.85;;;6.00;81.70;;;;;;5033852;28;20415;-77
2022/11/13 06:49:04;;;;;;;11.50;8.82;;;6.00;81.30;;;;;;5031360;28;20437;-76
2022/11/13 06:51:30;;;;;;;13.23;9.25;;;5.90;82.30;;;;;;5031857;28;20756;-75
2022/11/13 06:53:57;;;;;;;12.38;9.15;;;5.90;83.80;;;;;;5033777;28;20386;-77
2022/11/13 06:56:22;;;;;;;12.02;9.15;;;6.00;85.10;;;;;;5037053;28;20773;-77
2022/11/13 06:58:48;;;;;;;12.43;8.95;;;6.00;84.80;;;;;;5032312;28;20383;-77
2022/11/13 07:01:18;;;;;;;14.43;9.60;;;6.00;83.90;;;;;;5031430;28;20387;-77
2022/11/13 07:03:44;;;;;;;13.95;9.00;;;5.90;84.70;;;;;;5031665;28;20867;-77
2022/11/13 07:06:18;;;;;;;13.65;9.75;;;5.90;85.80;;;;;;5034313;28;20411;-76
2022/11/13 07:08:44;;;;;;;10.20;8.80;;;5.90;86.00;;;;;;5033546;28;20428;-77
2022/11/13 07:11:13;;;;;;;13.93;9.60;;;5.90;86.50;;;;;;5038084;28;20385;-77
2022/11/13 07:13:39;;;;;;;14.63;10.00;;;6.00;85.70;;;;;;5033102;28;20935;-77
2022/11/13 07:16:06;;;;;;;14.98;9.57;;;6.00;86.30;;;;;;5034979;28;20386;-74
2022/11/13 07:18:32;;;;;;;13.95;9.70;;;6.00;86.40;;;;;;5035032;28;20390;-76
2022/11/13 07:21:06;;;;;;;15.63;10.10;;;5.90;87.00;;;;;;5036416;28;20437;-76
2022/11/13 07:23:33;;;;;;;14.38;10.30;;;5.90;87.50;;;;;;5037282;28;20383;-76
2022/11/13 07:25:58;;;;;;;12.48;9.15;;;5.90;88.90;;;;;;5037664;28;20402;-75
2022/11/13 07:28:24;;;;;;;14.50;10.43;;;6.00;87.50;;;;;;5037866;28;20390;-75
2022/11/13 07:30:49;;;;;;;15.20;11.00;;;6.00;87.40;;;;;;5036561;28;20375;-76
2022/11/13 07:33:15;;;;;;;12.23;10.10;;;6.00;87.60;;;;;;5032956;28;20840;-76
2022/11/13 07:35:41;;;;;;;11.40;9.10;;;5.90;87.10;;;;;;5033013;28;20394;-77
2022/11/13 07:38:06;;;;;;;16.10;9.63;;;6.00;87.30;;;;;;5032781;28;20387;-77
2022/11/13 07:40:32;;;;;;;11.13;8.13;;;6.50;86.70;;;;;;5033525;28;20763;-77
2022/11/13 07:43:02;;;;;;;15.97;9.37;;;6.40;80.90;;;;;;5034179;28;20449;-76
2022/11/13 07:45:28;;;;;;;12.20;8.65;;;6.40;83.50;;;;;;5033018;28;20732;-77
2022/11/13 07:48:01;;;;;;;12.90;8.30;;;6.40;81.30;;;;;;5033989;28;20387;-75
2022/11/13 07:50:28;;;;;;;14.25;9.07;;;6.60;81.00;;;;;;5032863;28;20421;-76
2022/11/13 07:52:59;;;;;;;14.10;8.65;;;6.70;82.30;;;;;;5031752;28;20379;-77
2022/11/13 07:55:24;;;;;;;16.75;8.27;;;6.60;80.50;;;;;;5032375;28;20740;-77
2022/11/13 07:57:50;;;;;;;10.30;7.37;;;6.60;76.50;;;;;;5037153;28;20386;-77
2022/11/13 08:00:16;;;;;;;13.27;8.03;;;6.60;74.00;;;;;;5037304;28;20406;-76
2022/11/13 08:02:42;;;;;;;15.25;7.78;;;6.60;75.10;;;;;;5035975;28;20399;-77
2022/11/13 08:05:07;;;;;;;10.87;8.20;;;6.70;74.10;;;;;;5040149;28;20532;-77
2022/11/13 08:07:33;;;;;;;12.30;8.77;;;6.90;74.00;;;;;;5041905;28;20918;-76
2022/11/13 08:09:59;;;;;;;11.17;7.83;;;7.10;72.50;;;;;;5038533;28;20494;-76
2022/11/13 08:12:24;;;;;;;11.40;7.90;;;7.20;67.40;;;;;;5040084;28;20379;-77
2022/11/13 08:14:50;;;;;;;12.67;8.33;;;7.30;63.50;;;;;;5038625;28;20410;-76
2022/11/13 08:17:15;;;;;;;11.90;7.40;;;7.40;64.90;;;;;;5040015;28;20418;-76
2022/11/13 08:19:41;;;;;;;13.50;8.40;;;7.50;62.30;;;;;;5037175;28;20453;-75
2022/11/13 08:22:06;;;;;;;10.18;7.95;;;7.70;62.70;;;;;;5038335;28;20876;-77
2022/11/13 08:24:32;;;;;;;13.32;8.10;;;7.80;60.20;;;;;;5038852;28;20395;-76
2022/11/13 08:26:57;;;;;;;12.65;8.35;;;8.10;57.70;;;;;;5034120;28;20441;-76
2022/11/13 08:29:23;;;;;;;13.15;7.82;;;8.30;54.90;;;;;;5033513;28;20394;-76
2022/11/13 08:31:49;;;;;;;12.80;8.40;;;8.40;55.60;;;;;;5035155;28;20390;-77
2022/11/13 08:34:14;;;;;;;11.70;8.13;;;8.60;54.90;;;;;;5035256;28;20413;-76
2022/11/13 08:36:40;;;;;;;13.60;9.03;;;8.60;53.60;;;;;;5036209;28;20399;-77
2022/11/13 08:39:05;;;;;;;13.67;8.03;;;8.60;52.40;;;;;;5043235;22;20428;-74
2022/11/13 08:41:31;;;;;;;14.83;8.83;;;8.60;52.30;;;;;;5014067;28;20385;-73
2022/11/13 08:43:56;;;;;;;12.20;8.70;;;8.70;52.10;;;;;;5014457;28;20452;-74
2022/11/13 08:46:22;;;;;;;8.37;7.00;;;8.70;51.30;;;;;;5014255;28;20420;-74
2022/11/13 08:48:47;;;;;;;12.93;8.65;;;8.80;50.70;;;;;;5014247;28;20380;-73
2022/11/13 08:51:13;;;;;;;11.60;8.95;;;8.90;51.00;;;;;;5014593;28;20539;-75
2022/11/13 08:53:38;;;;;;;11.30;8.50;;;9.00;50.50;;;;;;5015863;28;20412;-74
2022/11/13 08:56:04;;;;;;;14.50;8.90;;;9.10;51.00;;;;;;5015182;28;20731;-74
2022/11/13 08:58:30;;;;;;;12.80;8.93;;;9.30;49.60;;;;;;5017391;28;20412;-74
2022/11/13 09:01:00;;;;;;;12.15;8.30;;;10.00;46.20;;;;;;5020348;28;20393;-73
2022/11/13 09:03:25;;;;;;;13.68;8.68;;;10.90;40.30;;;;;;5019821;28;20385;-75
2022/11/13 09:05:51;;;;;;;13.20;8.17;;;11.60;35.20;;;;;;5014725;28;20464;-73
2022/11/13 09:08:17;;;;;;;11.40;8.20;;;12.10;32.40;;;;;;4999317;28;20416;-74
2022/11/13 09:10:42;;;;;;;12.13;8.48;;;12.00;32.30;;;;;;5008554;28;20472;-74
2022/11/13 09:13:08;;;;;;;14.13;8.65;;;11.70;33.60;;;;;;5021298;28;20408;-75
2022/11/13 09:15:37;;;;;;;13.50;8.30;;;11.40;35.30;;;;;;5030135;28;20389;-74
2022/11/13 09:18:03;;;;;;;11.57;8.02;;;11.20;36.20;;;;;;5024935;28;20940;-74
2022/11/13 09:20:30;;;;;;;12.33;8.63;;;10.90;36.60;;;;;;5022855;28;20401;-74
2022/11/13 09:23:00;;;;;;;12.20;8.85;;;10.90;39.30;;;;;;5017513;28;20443;-74
2022/11/13 09:25:26;;;;;;;12.90;8.32;;;10.80;38.10;;;;;;5016333;28;20798;-75
2022/11/13 09:27:58;;;;;;;11.40;8.00;;;10.80;37.60;;;;;;5017551;28;20401;-73
2022/11/13 09:30:24;;;;;;;12.80;8.50;;;10.90;37.40;;;;;;5017830;28;20408;-74
2022/11/13 09:32:57;;;;;;;11.80;8.13;;;11.00;35.90;;;;;;5000693;28;20402;-74
2022/11/13 09:35:33;;;;;;;11.75;7.78;;;11.10;35.20;;;;;;5013415;28;20400;-75
2022/11/13 09:38:10;;;;;;;12.27;7.97;;;11.00;34.60;;;;;;5008372;28;20394;-74
2022/11/13 09:41:04;;;;;;;12.75;8.40;;;11.00;34.80;;;;;;4996217;28;20394;-76
2022/11/13 09:43:47;;;;;;;11.27;8.02;;;11.00;34.60;;;;;;5000200;28;20465;-74
2022/11/13 09:46:48;;;;;;;14.13;7.80;;;11.10;33.70;;;;;;5017482;28;20401;-74
2022/11/13 09:49:20;;;;;;;11.38;7.85;;;11.20;34.80;;;;;;5011489;28;20393;-75
2022/11/13 09:51:52;;;;;;;11.75;7.50;;;11.30;34.30;;;;;;5014478;28;20441;-75
2022/11/13 09:54:19;;;;;;;11.55;7.35;;;11.40;33.10;;;;;;5018484;28;20416;-74
2022/11/13 09:57:04;;;;;;;10.82;7.10;;;11.40;31.90;;;;;;5013859;28;20812;-73
2022/11/13 09:59:51;;;;;;;13.30;8.07;;;11.50;31.60;;;;;;5013571;28;20468;-75
2022/11/13 10:02:44;;;;;;;10.60;7.60;;;11.50;31.40;;;;;;5015082;28;20402;-74
2022/11/13 10:05:15;;;;;;;8.53;7.00;;;11.60;31.10;;;;;;5001639;28;20808;-73
2022/11/13 10:07:52;;;;;;;10.60;7.57;;;11.70;31.30;;;;;;4997654;28;20398;-75
2022/11/13 10:10:35;;;;;;;8.80;6.28;;;11.80;31.40;;;;;;4991354;28;20394;-74
2022/11/13 10:13:03;;;;;;;7.95;6.13;;;11.90;30.00;;;;;;4992972;28;20468;-75
2022/11/13 10:15:29;;;;;;;10.55;7.13;;;12.00;29.70;;;;;;5005379;28;20393;-74
2022/11/13 10:18:01;;;;;;;11.35;6.40;;;12.20;30.40;;;;;;5013156;28;20389;-74
2022/11/13 10:20:48;;;;;;;9.98;7.40;;;12.20;29.70;;;;;;5004445;28;20397;-74
2022/11/13 10:23:18;;;;;;;10.23;7.20;;;12.40;29.90;;;;;;4992234;28;20729;-76
2022/11/13 10:25:44;;;;;;;10.13;6.40;;;12.40;29.50;;;;;;4992958;28;20417;-74
2022/11/13 10:28:17;;;;;;;11.93;6.67;;;12.50;29.20;;;;;;4992568;28;20401;-73
2022/11/13 10:30:44;;;;;;;11.35;7.97;;;12.50;28.50;;;;;;4993695;28;20409;-74
2022/11/13 10:33:17;;;;;;;12.20;8.38;;;12.70;29.00;;;;;;4992743;28;20382;-75
2022/11/13 10:36:00;;;;;;;10.13;7.18;;;12.70;28.70;;;;;;4992531;28;20387;-77
2022/11/13 10:38:38;;;;;;;15.60;7.70;;;12.80;27.80;;;;;;4993400;28;20383;-76
2022/11/13 10:41:15;;;;;;;17.88;11.55;;;12.90;28.10;;;;;;4993868;28;20397;-73
2022/11/13 10:43:59;;;;;;;10.75;7.03;;;13.30;28.50;;;;;;4994574;28;20389;-75
2022/11/13 10:46:28;;;;;;;8.20;5.82;;;13.60;26.70;;;;;;4992618;28;20406;-74
2022/11/13 10:48:55;;;;;;;11.63;8.10;;;13.70;24.60;;;;;;4992907;28;20959;-74
2022/11/13 10:51:27;;;;;;;6.68;5.53;;;13.90;24.60;;;;;;4993057;28;20890;-75
2022/11/13 10:53:53;;;;;;;14.98;7.03;;;13.80;23.40;;;;;;4993712;28;20481;-74
2022/11/13 10:56:29;;;;;;;9.27;6.70;;;13.90;24.30;;;;;;4993179;28;20398;-75
2022/11/13 10:59:12;;;;;;;10.65;6.55;;;13.90;24.40;;;;;;4992458;28;20386;-75
2022/11/13 11:01:39;;;;;;;10.10;6.40;;;14.00;23.80;;;;;;4992118;28;20383;-74
2022/11/13 11:04:06;;;;;;;11.60;5.50;;;14.10;23.20;;;;;;5006093;28;20888;-74
2022/11/13 11:06:34;;;;;;;7.57;4.50;;;14.20;21.10;;;;;;5012579;28;20506;-74
2022/11/13 11:09:26;;;;;;;8.05;5.10;;;14.40;20.00;;;;;;5012544;28;20392;-76
2022/11/13 11:12:17;;;;;;;9.30;6.50;;;14.40;20.00;;;;;;5012359;28;20896;-74
2022/11/13 11:14:55;;;;;;;8.17;4.80;;;14.50;20.60;;;;;;4994419;28;20887;-75
2022/11/13 11:17:29;;;;;;;17.70;7.43;;;14.30;19.70;;;;;;4999290;28;20492;-75
2022/11/13 11:20:00;;;;;;;13.82;9.70;;;14.30;19.70;;;;;;4999811;28;20397;-74
2022/11/13 11:22:30;;;;;;;6.30;4.72;;;14.40;20.30;;;;;;5007599;28;20397;-74
2022/11/13 11:25:19;;;;;;;7.05;5.40;;;14.40;19.30;;;;;;4992244;28;20469;-75
2022/11/13 11:28:01;;;;;;;6.70;4.30;;;14.40;18.40;;;;;;4992291;28;20378;-74
2022/11/13 11:30:32;;;;;;;10.50;5.38;;;14.40;16.90;;;;;;4994023;28;20465;-73
2022/11/13 11:33:23;;;;;;;16.52;4.90;;;14.50;17.40;;;;;;4992587;28;20391;-74
2022/11/13 11:36:05;;;;;;;16.23;7.20;;;14.60;17.50;;;;;;5008944;28;20400;-74
2022/11/13 11:38:46;;;;;;;5.63;3.50;;;14.70;17.00;;;;;;5013488;28;20491;-75
2022/11/13 11:41:13;;;;;;;5.50;4.70;;;14.70;16.10;;;;;;5015218;28;20935;-74
2022/11/13 11:43:48;;;;;;;5.00;3.08;;;14.70;16.20;;;;;;5035258;28;20393;-74
2022/11/13 11:46:21;;;;;;;7.15;5.45;;;14.70;15.80;;;;;;5033957;28;20404;-74
2022/11/13 11:48:47;;;;;;;12.98;8.35;;;15.00;16.60;;;;;;5032194;28;20415;-75
2022/11/13 11:51:25;;;;;;;5.85;4.00;;;15.10;17.10;;;;;;5030174;28;20856;-74
2022/11/13 11:54:09;;;;;;;13.93;6.47;;;15.20;15.80;;;;;;5020946;28;20396;-75
2022/11/13 11:56:54;;;;;;;5.60;3.83;;;15.30;17.30;;;;;;5019099;28;20384;-75
2022/11/13 12:00:04;;;;;;;6.07;3.15;;;15.10;14.90;;;;;;5014144;28;20400;-74
2022/11/13 12:02:45;;;;;;;6.32;3.05;;;15.00;14.30;;;;;;4978231;28;20407;-75
2022/11/13 12:05:23;;;;;;;4.03;3.15;;;15.00;14.30;;;;;;4992490;28;20401;-75
2022/11/13 12:08:13;;;;;;;4.05;2.97;;;15.10;13.80;;;;;;5014488;28;20385;-76
2022/11/13 12:11:05;;;;;;;3.10;2.80;;;15.20;12.90;;;;;;5014246;28;20388;-75
2022/11/13 12:13:52;;;;;;;4.00;2.90;;;15.50;11.90;;;;;;5008972;28;20478;-75
2022/11/13 12:16:36;;;;;;;3.72;2.90;;;15.50;12.00;;;;;;4993654;28;20391;-74
2022/11/13 12:19:25;;;;;;;3.50;2.90;;;15.60;11.80;;;;;;4994346;28;20476;-74
2022/11/13 12:22:09;;;;;;;4.03;2.90;;;15.40;12.40;;;;;;5010263;28;20455;-76
2022/11/13 12:25:12;;;;;;;3.28;2.90;;;15.40;11.80;;;;;;5005195;28;20475;-76
2022/11/13 12:27:50;;;;;;;6.47;3.10;;;15.70;11.60;;;;;;5014193;28;20404;-75
2022/11/13 12:30:18;;;;;;;3.42;2.80;;;15.90;11.20;;;;;;5013494;28;20812;-75
2022/11/13 12:32:49;;;;;;;4.60;3.20;;;16.00;10.90;;;;;;5014048;28;20405;-76
2022/11/13 12:35:20;;;;;;;4.63;3.58;;;15.90;11.80;;;;;;5013012;28;20924;-75
2022/11/13 12:37:56;;;;;;;5.10;3.45;;;16.00;12.30;;;;;;5014297;28;20416;-74
2022/11/13 12:40:41;;;;;;;4.82;3.33;;;16.10;12.00;;;;;;5017073;28;20401;-75
2022/11/13 12:43:18;;;;;;;5.07;3.72;;;16.10;11.80;;;;;;5015748;28;20393;-75
2022/11/13 12:45:53;;;;;;;3.40;3.10;;;16.20;12.50;;;;;;5016935;28;20408;-74
2022/11/13 12:48:19;;;;;;;5.15;3.35;;;16.20;11.80;;;;;;5014099;28;20389;-75
2022/11/13 12:50:58;;;;;;;4.97;3.30;;;16.00;11.70;;;;;;5013857;28;20464;-76
2022/11/13 12:53:42;;;;;;;4.80;3.70;;;15.80;12.90;;;;;;5014104;28;20372;-75